YHEC weather

Heck Field Airport
Queensland, Australia

Public forecast

Using degrees Celsius for public forecast. Weather courtesy of forecast.io.

Closest aviation weather report (METAR) to Heck Field Airport

Closest report is Gold Coast Airport, 25.4 nm (47.0 km) SSE. Retrieved 2020/03/31 22:00 UTC (5 minutes ago):

YBCG 312200Z AUTO 20009KT 9999 // NCD 24/19 Q1017 RF000/0000

Closest aviation forecast (TAF) to Heck Field Airport

Closest forecast is Gold Coast Airport, 25.4 nm (47.0 km) SSE. Retrieved 2020/03/31 18:00 UTC (4 hours ago):

TAF YBCG 311722Z 3118/0118 22008KT 9999 -SHRA SCT020 FM010000 15012KT 9999 NSW FEW030 FM011200 19007KT 9999 -SHRA SCT020